Time;durP1;ratioP1;P1;durP2;ratioP2;P2;SDS_P1;SDS_P2;PMS_P1;PMS_P2;Temp;Humidity;BMP_temperature;BMP_pressure;BME280_temperature;BME280_humidity;BME280_pressure;Samples;Min_cycle;Max_cycle;Signal;HPM_P1;HPM_P2
2021/11/06 00:00:19;;;;;;;47.10;33.25;;;;;;;;;;143726;582;46020;-55
2021/11/06 00:02:47;;;;;;;52.28;34.80;;;;;;;;;;143724;573;47010;-55
2021/11/06 00:05:14;;;;;;;40.42;28.85;;;;;;;;;;143723;647;46018;-55
2021/11/06 00:07:41;;;;;;;64.40;36.33;;;;;;;;;;143727;607;46022;-55
2021/11/06 00:10:10;;;;;;;52.50;33.88;;;;;;;;;;143728;627;46021;-56
2021/11/06 00:12:38;;;;;;;50.47;33.15;;;;;;;;;;143725;627;47010;-56
2021/11/06 00:15:07;;;;;;;51.20;32.97;;;;;;;;;;143721;592;46018;-55
2021/11/06 00:17:35;;;;;;;51.28;35.30;;;;;;;;;;143729;604;46023;-55
2021/11/06 00:20:03;;;;;;;62.97;35.25;;;;;;;;;;143726;604;46020;-54
2021/11/06 00:22:31;;;;;;;61.65;39.15;;;;;;;;;;143729;564;45919;-56
2021/11/06 00:24:59;;;;;;;63.17;42.38;;;;;;;;;;143723;565;46019;-56
2021/11/06 00:27:26;;;;;;;51.03;32.35;;;;;;;;;;143728;625;46022;-56
2021/11/06 00:29:53;;;;;;;60.10;35.95;;;;;;;;;;143727;577;47018;-56
2021/11/06 00:32:20;;;;;;;46.97;32.55;;;;;;;;;;143723;598;47010;-57
2021/11/06 00:34:47;;;;;;;47.50;32.35;;;;;;;;;;143723;573;46010;-56
2021/11/06 00:37:14;;;;;;;58.28;36.22;;;;;;;;;;143727;587;47010;-56
2021/11/06 00:39:41;;;;;;;49.97;32.90;;;;;;;;;;143720;558;46021;-57
2021/11/06 00:42:08;;;;;;;56.83;34.97;;;;;;;;;;143726;634;46022;-57
2021/11/06 00:44:36;;;;;;;45.35;31.55;;;;;;;;;;143725;571;46018;-56
2021/11/06 00:47:04;;;;;;;60.85;37.85;;;;;;;;;;143730;597;46023;-57
2021/11/06 00:49:31;;;;;;;72.07;37.78;;;;;;;;;;143725;625;46020;-55
2021/11/06 00:51:58;;;;;;;47.42;32.35;;;;;;;;;;143725;625;47010;-57
2021/11/06 00:54:25;;;;;;;42.20;29.52;;;;;;;;;;143724;611;46019;-56
2021/11/06 00:56:52;;;;;;;58.10;35.40;;;;;;;;;;143728;601;46022;-57
2021/11/06 00:59:19;;;;;;;57.00;34.00;;;;;;;;;;143724;598;47020;-56
2021/11/06 01:01:47;;;;;;;43.87;28.67;;;;;;;;;;143725;612;47010;-56
2021/11/06 01:04:14;;;;;;;44.25;29.55;;;;;;;;;;143719;564;46018;-56
2021/11/06 01:06:41;;;;;;;44.60;30.98;;;;;;;;;;143727;572;46022;-57
2021/11/06 01:09:08;;;;;;;74.15;42.30;;;;;;;;;;143727;570;46046;-55
2021/11/06 01:11:35;;;;;;;58.83;36.22;;;;;;;;;;143723;592;47010;-56
2021/11/06 01:14:03;;;;;;;40.22;29.15;;;;;;;;;;143724;644;46018;-56
2021/11/06 01:16:30;;;;;;;46.80;30.17;;;;;;;;;;143727;579;47011;-55
2021/11/06 01:18:57;;;;;;;47.13;30.15;;;;;;;;;;143727;588;46044;-55
2021/11/06 01:21:25;;;;;;;69.53;43.67;;;;;;;;;;143724;586;47010;-55
2021/11/06 01:23:51;;;;;;;62.75;36.47;;;;;;;;;;143717;614;46019;-55
2021/11/06 01:26:18;;;;;;;63.87;40.08;;;;;;;;;;143729;646;46022;-55
2021/11/06 01:28:45;;;;;;;47.97;33.67;;;;;;;;;;143718;618;47018;-55
2021/11/06 01:31:12;;;;;;;53.22;33.70;;;;;;;;;;143725;596;47010;-55
2021/11/06 01:33:39;;;;;;;38.72;29.85;;;;;;;;;;143724;570;46018;-56
2021/11/06 01:36:06;;;;;;;41.58;29.15;;;;;;;;;;143728;592;46022;-56
2021/11/06 01:38:34;;;;;;;41.60;30.62;;;;;;;;;;143725;601;47018;-55
2021/11/06 01:41:01;;;;;;;56.30;36.28;;;;;;;;;;143723;592;47010;-56
2021/11/06 01:43:28;;;;;;;48.42;32.13;;;;;;;;;;143724;611;46018;-57
2021/11/06 01:45:57;;;;;;;46.25;30.20;;;;;;;;;;143728;582;46022;-57
2021/11/06 01:48:24;;;;;;;46.22;30.05;;;;;;;;;;143725;575;47018;-55
2021/11/06 01:50:52;;;;;;;44.63;30.27;;;;;;;;;;143723;573;47010;-55
2021/11/06 01:53:19;;;;;;;38.92;28.42;;;;;;;;;;143719;595;46019;-56
2021/11/06 01:55:48;;;;;;;48.87;31.15;;;;;;;;;;143729;625;46023;-56
2021/11/06 01:58:15;;;;;;;44.75;29.67;;;;;;;;;;143726;566;46020;-56
2021/11/06 02:00:42;;;;;;;43.87;29.58;;;;;;;;;;143724;637;47010;-54
2021/11/06 02:03:09;;;;;;;51.95;35.63;;;;;;;;;;143724;581;46018;-55
2021/11/06 02:05:36;;;;;;;45.53;31.23;;;;;;;;;;143728;571;46022;-55
2021/11/06 02:08:04;;;;;;;44.88;31.20;;;;;;;;;;143725;570;47019;-56
2021/11/06 02:10:32;;;;;;;45.65;30.95;;;;;;;;;;143723;605;47010;-56
2021/11/06 02:12:59;;;;;;;47.70;33.33;;;;;;;;;;143725;595;46018;-54
2021/11/06 02:15:26;;;;;;;45.95;29.52;;;;;;;;;;143728;587;46022;-56
2021/11/06 02:17:53;;;;;;;41.42;29.55;;;;;;;;;;143718;608;47018;-56
2021/11/06 02:20:22;;;;;;;41.95;30.83;;;;;;;;;;143725;564;47010;-55
2021/11/06 02:22:50;;;;;;;56.13;36.15;;;;;;;;;;143724;579;47019;-56
2021/11/06 02:25:18;;;;;;;36.92;28.20;;;;;;;;;;143728;569;46023;-55
2021/11/06 02:27:45;;;;;;;48.83;32.38;;;;;;;;;;143725;571;47027;-56
2021/11/06 02:30:16;;;;;;;49.40;33.28;;;;;;;;;;143723;576;47010;-55
2021/11/06 02:32:44;;;;;;;41.65;29.75;;;;;;;;;;143724;623;46019;-56
2021/11/06 02:35:12;;;;;;;40.20;28.33;;;;;;;;;;143726;589;46022;-56
2021/11/06 02:37:39;;;;;;;39.38;26.83;;;;;;;;;;143724;602;47019;-55
2021/11/06 02:40:07;;;;;;;34.45;24.98;;;;;;;;;;143724;589;47010;-55
2021/11/06 02:42:35;;;;;;;31.12;23.02;;;;;;;;;;143721;638;46018;-55
2021/11/06 02:45:05;;;;;;;35.45;24.00;;;;;;;;;;143727;596;46022;-55
2021/11/06 02:47:32;;;;;;;32.50;22.60;;;;;;;;;;143725;616;47018;-55
2021/11/06 02:49:59;;;;;;;34.25;24.63;;;;;;;;;;143723;621;47010;-55
2021/11/06 02:52:26;;;;;;;35.63;24.25;;;;;;;;;;143725;613;46018;-54
2021/11/06 02:54:53;;;;;;;33.13;24.40;;;;;;;;;;143726;580;46023;-55
2021/11/06 02:57:21;;;;;;;29.15;22.87;;;;;;;;;;143725;564;47018;-57
2021/11/06 02:59:50;;;;;;;32.88;24.55;;;;;;;;;;143725;615;46011;-56
2021/11/06 03:02:17;;;;;;;34.85;24.00;;;;;;;;;;143722;575;46019;-55
2021/11/06 03:04:44;;;;;;;33.17;23.65;;;;;;;;;;143728;572;46022;-57
2021/11/06 03:07:11;;;;;;;31.35;23.48;;;;;;;;;;143718;564;47019;-56
2021/11/06 03:09:39;;;;;;;38.58;24.63;;;;;;;;;;143724;587;47010;-55
2021/11/06 03:12:13;;;;;;;38.30;23.48;;;;;;;;;;143724;594;47041;-56
2021/11/06 03:14:42;;;;;;;40.72;24.75;;;;;;;;;;143726;565;46022;-57
2021/11/06 03:17:10;;;;;;;29.20;22.10;;;;;;;;;;143725;615;47018;-57
2021/11/06 03:19:37;;;;;;;31.80;23.98;;;;;;;;;;143724;637;47010;-56
2021/11/06 03:22:05;;;;;;;36.78;25.37;;;;;;;;;;143726;595;46018;-57
2021/11/06 03:24:32;;;;;;;35.92;24.65;;;;;;;;;;143728;633;46023;-56
2021/11/06 03:26:59;;;;;;;32.70;22.33;;;;;;;;;;143726;570;47018;-56
2021/11/06 03:29:27;;;;;;;30.17;22.02;;;;;;;;;;143724;576;47010;-56
2021/11/06 03:31:54;;;;;;;34.08;24.25;;;;;;;;;;143719;573;46018;-57
2021/11/06 03:34:21;;;;;;;35.33;23.67;;;;;;;;;;143725;571;47010;-56
2021/11/06 03:36:48;;;;;;;33.42;22.95;;;;;;;;;;143723;619;47019;-56
2021/11/06 03:39:15;;;;;;;35.85;22.85;;;;;;;;;;143722;579;47010;-56
2021/11/06 03:41:42;;;;;;;29.50;21.20;;;;;;;;;;143725;624;46018;-56
2021/11/06 03:44:09;;;;;;;39.38;25.80;;;;;;;;;;143729;630;46022;-57
2021/11/06 03:46:37;;;;;;;34.38;24.83;;;;;;;;;;143726;635;47018;-56
2021/11/06 03:49:05;;;;;;;41.63;24.08;;;;;;;;;;143723;571;47010;-57
2021/11/06 03:51:32;;;;;;;27.85;21.40;;;;;;;;;;143723;601;46018;-57
2021/11/06 03:53:59;;;;;;;33.50;22.85;;;;;;;;;;143726;579;46023;-55
2021/11/06 03:56:27;;;;;;;36.22;23.58;;;;;;;;;;143718;629;47018;-55
2021/11/06 03:58:55;;;;;;;37.50;25.45;;;;;;;;;;143724;573;46012;-56
2021/11/06 04:01:22;;;;;;;30.25;21.05;;;;;;;;;;143724;730;46019;-56
2021/11/06 04:03:49;;;;;;;30.58;22.25;;;;;;;;;;143727;589;47010;-56
2021/11/06 04:06:17;;;;;;;25.23;19.95;;;;;;;;;;143726;647;47019;-57
2021/11/06 04:08:44;;;;;;;34.30;23.05;;;;;;;;;;143726;588;47010;-56
2021/11/06 04:11:12;;;;;;;30.05;20.50;;;;;;;;;;143725;628;47010;-56
2021/11/06 04:13:38;;;;;;;32.65;20.83;;;;;;;;;;143727;594;46022;-56
2021/11/06 04:16:05;;;;;;;30.92;21.20;;;;;;;;;;143724;569;47021;-57
2021/11/06 04:18:33;;;;;;;28.58;21.73;;;;;;;;;;143726;604;46022;-56
2021/11/06 04:21:00;;;;;;;28.00;20.85;;;;;;;;;;143719;589;46018;-56
2021/11/06 04:23:27;;;;;;;30.20;20.05;;;;;;;;;;143729;565;46023;-56
2021/11/06 04:25:54;;;;;;;28.27;19.00;;;;;;;;;;143727;570;47018;-57
2021/11/06 04:28:21;;;;;;;24.33;18.33;;;;;;;;;;143725;584;47011;-56
2021/11/06 04:30:48;;;;;;;21.85;14.75;;;;;;;;;;143726;577;46019;-56
2021/11/06 04:33:16;;;;;;;21.23;16.50;;;;;;;;;;143726;572;47022;-56
2021/11/06 04:35:43;;;;;;;18.98;14.87;;;;;;;;;;143726;594;47020;-57
2021/11/06 04:38:10;;;;;;;22.45;16.62;;;;;;;;;;143724;587;47026;-56
2021/11/06 04:40:37;;;;;;;24.55;17.98;;;;;;;;;;143725;616;46018;-57
2021/11/06 04:43:04;;;;;;;24.35;17.37;;;;;;;;;;143729;570;46022;-55
2021/11/06 04:45:31;;;;;;;24.77;17.90;;;;;;;;;;143720;579;46021;-56
2021/11/06 04:47:58;;;;;;;28.20;19.17;;;;;;;;;;143725;604;47010;-55
2021/11/06 04:50:25;;;;;;;25.83;20.00;;;;;;;;;;143723;636;46018;-55
2021/11/06 04:52:52;;;;;;;32.38;22.17;;;;;;;;;;143727;574;46023;-55
2021/11/06 04:55:19;;;;;;;28.58;20.42;;;;;;;;;;143726;569;47020;-55
2021/11/06 04:57:46;;;;;;;34.00;21.90;;;;;;;;;;143725;579;47010;-55
2021/11/06 05:00:15;;;;;;;30.73;20.85;;;;;;;;;;143725;580;47019;-54
2021/11/06 05:02:42;;;;;;;32.17;21.95;;;;;;;;;;143728;569;47010;-55
2021/11/06 05:05:10;;;;;;;25.88;19.00;;;;;;;;;;143725;586;47020;-56
2021/11/06 05:07:37;;;;;;;27.52;19.95;;;;;;;;;;143731;587;46012;-57
2021/11/06 05:10:06;;;;;;;27.65;19.15;;;;;;;;;;143719;627;46018;-57
2021/11/06 05:12:34;;;;;;;32.60;22.20;;;;;;;;;;143729;570;46022;-57
2021/11/06 05:15:01;;;;;;;27.10;19.83;;;;;;;;;;143726;569;47019;-57
2021/11/06 05:17:28;;;;;;;28.50;20.20;;;;;;;;;;143725;584;47010;-57
2021/11/06 05:19:57;;;;;;;32.28;22.05;;;;;;;;;;143726;596;46018;-57
2021/11/06 05:22:25;;;;;;;27.50;19.50;;;;;;;;;;143728;616;46023;-57
2021/11/06 05:24:51;;;;;;;30.77;19.80;;;;;;;;;;143725;630;47020;-55
2021/11/06 05:27:18;;;;;;;34.03;23.55;;;;;;;;;;143728;622;47010;-55
2021/11/06 05:29:45;;;;;;;30.27;21.80;;;;;;;;;;143738;583;46019;-56
2021/11/06 05:32:13;;;;;;;33.00;20.65;;;;;;;;;;143742;574;46022;-55
2021/11/06 05:34:40;;;;;;;32.22;21.33;;;;;;;;;;143732;570;47018;-56
2021/11/06 05:37:07;;;;;;;20.80;16.37;;;;;;;;;;143737;620;47920;-55
2021/11/06 05:39:34;;;;;;;22.40;16.10;;;;;;;;;;143737;614;46018;-54
2021/11/06 05:42:01;;;;;;;22.30;16.37;;;;;;;;;;143738;661;46022;-54
2021/11/06 05:44:28;;;;;;;29.23;19.85;;;;;;;;;;143739;564;47020;-54
2021/11/06 05:46:55;;;;;;;21.98;15.73;;;;;;;;;;143738;582;47010;-56
2021/11/06 05:49:22;;;;;;;28.85;20.73;;;;;;;;;;143739;631;46018;-57
2021/11/06 05:51:49;;;;;;;23.33;16.30;;;;;;;;;;143743;623;46023;-55
2021/11/06 05:54:17;;;;;;;32.33;22.10;;;;;;;;;;143741;626;46044;-55
2021/11/06 05:56:43;;;;;;;23.98;19.35;;;;;;;;;;143737;618;47010;-55
2021/11/06 05:59:10;;;;;;;22.20;15.95;;;;;;;;;;143735;581;46018;-55
2021/11/06 06:01:38;;;;;;;28.12;17.87;;;;;;;;;;143742;564;46022;-55
2021/11/06 06:04:05;;;;;;;38.97;24.37;;;;;;;;;;143741;564;47018;-55
2021/11/06 06:06:32;;;;;;;23.58;17.17;;;;;;;;;;143737;577;47010;-54
2021/11/06 06:08:59;;;;;;;24.87;18.52;;;;;;;;;;143740;569;46018;-55
2021/11/06 06:11:26;;;;;;;25.62;18.15;;;;;;;;;;143740;565;46022;-56
2021/11/06 06:13:53;;;;;;;32.72;22.27;;;;;;;;;;143742;575;47026;-55
2021/11/06 06:16:20;;;;;;;30.17;21.08;;;;;;;;;;143739;626;47010;-55
2021/11/06 06:18:47;;;;;;;35.75;23.58;;;;;;;;;;143739;619;47018;-55
2021/11/06 06:21:15;;;;;;;39.05;22.85;;;;;;;;;;143740;636;47010;-55
2021/11/06 06:23:42;;;;;;;30.73;20.83;;;;;;;;;;143733;569;47018;-56
2021/11/06 06:26:09;;;;;;;26.35;18.92;;;;;;;;;;143740;565;46010;-55
2021/11/06 06:28:37;;;;;;;25.60;17.67;;;;;;;;;;143732;588;46018;-56
2021/11/06 06:31:04;;;;;;;23.12;16.20;;;;;;;;;;143729;615;47012;-56
2021/11/06 06:33:31;;;;;;;24.87;17.25;;;;;;;;;;143727;600;47018;-56
2021/11/06 06:35:59;;;;;;;29.50;19.80;;;;;;;;;;143726;631;47011;-55
2021/11/06 06:38:26;;;;;;;31.25;20.12;;;;;;;;;;143725;610;46018;-56
2021/11/06 06:40:53;;;;;;;32.15;22.73;;;;;;;;;;143728;587;46022;-55
2021/11/06 06:43:20;;;;;;;37.60;23.48;;;;;;;;;;143724;643;47019;-55
2021/11/06 06:45:47;;;;;;;41.92;26.27;;;;;;;;;;143726;646;47010;-55
2021/11/06 06:48:14;;;;;;;34.90;25.02;;;;;;;;;;143722;604;46018;-55
2021/11/06 06:50:46;;;;;;;40.47;25.83;;;;;;;;;;143730;654;46022;-55
2021/11/06 06:53:13;;;;;;;35.92;24.92;;;;;;;;;;143729;645;46021;-56
2021/11/06 06:55:41;;;;;;;35.80;25.58;;;;;;;;;;143722;573;47012;-56
2021/11/06 06:58:08;;;;;;;35.97;24.00;;;;;;;;;;143727;588;46018;-56
2021/11/06 07:00:36;;;;;;;39.22;26.75;;;;;;;;;;143730;587;46022;-56
2021/11/06 07:03:04;;;;;;;32.30;23.45;;;;;;;;;;143729;563;46020;-55
2021/11/06 07:05:32;;;;;;;31.95;23.02;;;;;;;;;;143726;597;47010;-55
2021/11/06 07:07:58;;;;;;;35.97;24.20;;;;;;;;;;143727;584;47018;-56
2021/11/06 07:10:26;;;;;;;32.33;22.00;;;;;;;;;;143730;618;46022;-55
2021/11/06 07:12:53;;;;;;;34.33;22.17;;;;;;;;;;143722;621;46020;-55
2021/11/06 07:15:20;;;;;;;36.67;24.58;;;;;;;;;;143728;693;47010;-55
2021/11/06 07:17:47;;;;;;;33.85;21.85;;;;;;;;;;143727;656;47018;-56
2021/11/06 07:20:15;;;;;;;31.87;22.00;;;;;;;;;;143724;632;47012;-55
2021/11/06 07:22:43;;;;;;;31.20;21.50;;;;;;;;;;143728;614;47018;-57
2021/11/06 07:25:10;;;;;;;26.10;19.55;;;;;;;;;;143727;585;46012;-56
2021/11/06 07:27:37;;;;;;;32.35;21.02;;;;;;;;;;143726;569;46019;-56
2021/11/06 07:30:06;;;;;;;34.00;22.00;;;;;;;;;;143729;811;46023;-56
2021/11/06 07:32:33;;;;;;;37.30;20.20;;;;;;;;;;143726;615;47018;-56
2021/11/06 07:35:01;;;;;;;31.02;20.00;;;;;;;;;;143726;589;47011;-56
2021/11/06 07:37:28;;;;;;;28.23;20.58;;;;;;;;;;143723;597;46018;-55
2021/11/06 07:39:55;;;;;;;31.15;20.92;;;;;;;;;;143731;580;46022;-55
2021/11/06 07:42:23;;;;;;;27.87;20.55;;;;;;;;;;143728;594;47019;-56
2021/11/06 07:44:50;;;;;;;31.83;20.52;;;;;;;;;;143729;628;46012;-55
2021/11/06 07:47:17;;;;;;;28.25;19.42;;;;;;;;;;143729;566;46018;-55
2021/11/06 07:49:43;;;;;;;29.05;19.85;;;;;;;;;;143729;614;46022;-56
2021/11/06 07:52:11;;;;;;;27.55;19.80;;;;;;;;;;143728;626;47018;-56
2021/11/06 07:54:38;;;;;;;25.92;19.33;;;;;;;;;;143730;566;46012;-57
2021/11/06 07:57:06;;;;;;;28.45;18.95;;;;;;;;;;143728;622;46018;-56
2021/11/06 07:59:33;;;;;;;25.98;18.40;;;;;;;;;;143730;620;46022;-57
2021/11/06 08:02:00;;;;;;;26.33;18.30;;;;;;;;;;143720;634;47018;-56
2021/11/06 08:04:27;;;;;;;31.02;20.85;;;;;;;;;;143727;634;47010;-55
2021/11/06 08:06:54;;;;;;;25.50;19.62;;;;;;;;;;143727;577;47018;-56
2021/11/06 08:09:22;;;;;;;24.20;17.02;;;;;;;;;;143730;613;46022;-56
2021/11/06 08:11:49;;;;;;;26.37;18.00;;;;;;;;;;143729;656;47019;-56
2021/11/06 08:14:16;;;;;;;33.38;21.33;;;;;;;;;;143728;773;46027;-55
2021/11/06 08:16:43;;;;;;;27.50;18.48;;;;;;;;;;143728;707;46018;-56
2021/11/06 08:19:11;;;;;;;27.48;19.15;;;;;;;;;;143729;690;46022;-56
2021/11/06 08:21:39;;;;;;;25.75;17.67;;;;;;;;;;143727;735;47021;-57
2021/11/06 08:24:06;;;;;;;23.87;16.92;;;;;;;;;;143726;662;47019;-56
2021/11/06 08:26:33;;;;;;;27.48;18.40;;;;;;;;;;143721;634;46018;-55
2021/11/06 08:29:00;;;;;;;25.33;16.95;;;;;;;;;;143730;714;46023;-56
2021/11/06 08:31:28;;;;;;;24.80;17.73;;;;;;;;;;143728;600;47018;-57
2021/11/06 08:33:55;;;;;;;27.73;19.98;;;;;;;;;;143728;618;46013;-56
2021/11/06 08:36:23;;;;;;;25.30;17.30;;;;;;;;;;143726;833;46018;-56
2021/11/06 08:38:51;;;;;;;24.17;16.45;;;;;;;;;;143729;848;46022;-55
2021/11/06 08:41:18;;;;;;;27.62;17.17;;;;;;;;;;143726;642;47020;-55
2021/11/06 08:43:45;;;;;;;27.58;19.98;;;;;;;;;;143727;814;47010;-56
2021/11/06 08:46:12;;;;;;;27.55;18.83;;;;;;;;;;143727;703;47018;-56
2021/11/06 08:48:39;;;;;;;21.23;15.57;;;;;;;;;;143729;638;46022;-56
2021/11/06 08:51:06;;;;;;;27.15;18.42;;;;;;;;;;143722;803;47018;-56
2021/11/06 08:53:33;;;;;;;27.85;19.50;;;;;;;;;;143726;578;47010;-56
2021/11/06 08:56:00;;;;;;;30.00;21.27;;;;;;;;;;143727;581;46018;-56
2021/11/06 08:58:28;;;;;;;33.67;23.92;;;;;;;;;;143729;652;47010;-55
2021/11/06 09:00:56;;;;;;;33.60;23.60;;;;;;;;;;143726;637;47020;-56
2021/11/06 09:03:25;;;;;;;26.35;20.20;;;;;;;;;;143724;596;47011;-56
2021/11/06 09:05:54;;;;;;;23.98;17.42;;;;;;;;;;143726;570;46019;-57
2021/11/06 09:08:27;;;;;;;26.92;19.35;;;;;;;;;;143730;795;46022;-56
2021/11/06 09:11:02;;;;;;;33.00;20.25;;;;;;;;;;143727;643;47019;-56
2021/11/06 09:13:30;;;;;;;26.73;18.75;;;;;;;;;;143725;609;47010;-56
2021/11/06 09:15:57;;;;;;;28.70;20.58;;;;;;;;;;143720;602;47018;-56
2021/11/06 09:18:25;;;;;;;32.47;23.80;;;;;;;;;;143731;573;46022;-56
2021/11/06 09:20:52;;;;;;;30.10;21.98;;;;;;;;;;143728;588;47018;-56
2021/11/06 09:23:20;;;;;;;30.95;23.45;;;;;;;;;;143727;676;46012;-56
2021/11/06 09:25:46;;;;;;;33.40;23.38;;;;;;;;;;143728;692;46018;-56
2021/11/06 09:28:13;;;;;;;32.75;24.52;;;;;;;;;;143729;730;46023;-57
2021/11/06 09:30:41;;;;;;;30.00;24.25;;;;;;;;;;143727;589;47020;-56
2021/11/06 09:33:08;;;;;;;34.95;25.27;;;;;;;;;;143729;669;46012;-57
2021/11/06 09:35:36;;;;;;;35.15;24.42;;;;;;;;;;143726;575;47018;-57
2021/11/06 09:38:03;;;;;;;34.83;24.30;;;;;;;;;;143730;606;46022;-56
2021/11/06 09:40:30;;;;;;;30.35;23.60;;;;;;;;;;143720;597;47019;-58
2021/11/06 09:42:58;;;;;;;32.22;23.10;;;;;;;;;;143728;566;46012;-56
2021/11/06 09:45:26;;;;;;;34.60;23.55;;;;;;;;;;143725;640;46018;-57
2021/11/06 09:47:53;;;;;;;31.48;22.55;;;;;;;;;;143730;743;46022;-56
2021/11/06 09:50:21;;;;;;;37.25;25.58;;;;;;;;;;143727;615;46021;-57
2021/11/06 09:52:50;;;;;;;32.33;22.80;;;;;;;;;;143727;654;47010;-56
2021/11/06 09:55:20;;;;;;;30.42;22.40;;;;;;;;;;143727;582;46911;-57
2021/11/06 09:57:47;;;;;;;33.17;23.35;;;;;;;;;;143729;565;47010;-56
2021/11/06 10:00:16;;;;;;;30.02;21.52;;;;;;;;;;143726;576;47018;-58
2021/11/06 10:02:43;;;;;;;33.78;22.25;;;;;;;;;;143727;636;47010;-57
2021/11/06 10:05:14;;;;;;;30.02;20.98;;;;;;;;;;143723;608;46019;-57
2021/11/06 10:07:42;;;;;;;29.15;19.98;;;;;;;;;;143730;874;46022;-56
2021/11/06 10:10:16;;;;;;;28.08;20.90;;;;;;;;;;143727;625;47019;-56
2021/11/06 10:12:57;;;;;;;25.73;19.35;;;;;;;;;;143730;576;46012;-56
2021/11/06 10:15:26;;;;;;;27.83;19.58;;;;;;;;;;143725;577;46018;-57
2021/11/06 10:17:53;;;;;;;22.23;17.80;;;;;;;;;;143730;616;46022;-56
2021/11/06 10:20:31;;;;;;;31.98;21.75;;;;;;;;;;143727;587;47019;-56
2021/11/06 10:23:03;;;;;;;25.92;19.52;;;;;;;;;;143725;578;47010;-55
2021/11/06 10:25:30;;;;;;;28.75;18.98;;;;;;;;;;143726;656;46018;-56
2021/11/06 10:28:02;;;;;;;23.27;18.35;;;;;;;;;;143729;615;46023;-56
2021/11/06 10:30:36;;;;;;;23.50;17.23;;;;;;;;;;143719;569;47018;-57
2021/11/06 10:33:10;;;;;;;32.87;21.00;;;;;;;;;;143725;600;47010;-57
2021/11/06 10:35:40;;;;;;;28.83;21.37;;;;;;;;;;143723;584;46018;-56
2021/11/06 10:38:24;;;;;;;35.38;27.37;;;;;;;;;;143727;594;47010;-56
2021/11/06 10:40:59;;;;;;;37.00;28.83;;;;;;;;;;143725;639;46020;-56
2021/11/06 10:43:28;;;;;;;35.72;28.12;;;;;;;;;;143725;582;47010;-55
2021/11/06 10:46:01;;;;;;;40.75;29.05;;;;;;;;;;143726;564;46018;-56
2021/11/06 10:48:33;;;;;;;46.40;34.70;;;;;;;;;;143728;603;46022;-56
2021/11/06 10:51:11;;;;;;;40.05;30.85;;;;;;;;;;143726;570;47018;-57
2021/11/06 10:53:58;;;;;;;41.37;32.25;;;;;;;;;;143725;575;46012;-56
2021/11/06 10:56:42;;;;;;;45.53;32.50;;;;;;;;;;143719;570;46018;-58
2021/11/06 10:59:21;;;;;;;41.30;31.37;;;;;;;;;;143728;613;46022;-55
2021/11/06 11:01:53;;;;;;;45.83;33.45;;;;;;;;;;143726;580;46020;-55
2021/11/06 11:04:22;;;;;;;42.15;33.60;;;;;;;;;;143726;572;46011;-56
2021/11/06 11:06:58;;;;;;;46.08;33.40;;;;;;;;;;143725;585;46018;-55
2021/11/06 11:09:27;;;;;;;40.60;32.10;;;;;;;;;;143727;619;47010;-55
2021/11/06 11:12:00;;;;;;;35.78;27.70;;;;;;;;;;143727;609;46021;-55
2021/11/06 11:14:32;;;;;;;40.50;28.30;;;;;;;;;;143724;565;47010;-56
2021/11/06 11:17:02;;;;;;;36.63;26.92;;;;;;;;;;143724;575;46018;-55
2021/11/06 11:19:36;;;;;;;37.67;28.67;;;;;;;;;;143728;607;46023;-55
2021/11/06 11:22:05;;;;;;;31.67;25.33;;;;;;;;;;143720;586;46020;-56
2021/11/06 11:24:33;;;;;;;36.55;28.05;;;;;;;;;;143726;579;46010;-55
2021/11/06 11:27:00;;;;;;;32.67;25.52;;;;;;;;;;143725;625;47018;-55
2021/11/06 11:29:32;;;;;;;37.92;25.65;;;;;;;;;;143727;590;46022;-55
2021/11/06 11:32:00;;;;;;;32.05;24.70;;;;;;;;;;143727;602;46020;-55
2021/11/06 11:34:27;;;;;;;36.05;24.20;;;;;;;;;;143728;609;46010;-55
2021/11/06 11:36:55;;;;;;;34.33;25.67;;;;;;;;;;143722;581;46018;-55
2021/11/06 11:39:24;;;;;;;39.30;28.23;;;;;;;;;;143727;580;46022;-54
2021/11/06 11:42:33;;;;;;;27.25;23.45;;;;;;;;;;143724;698;47021;-56
2021/11/06 11:46:00;;;;;;;33.60;26.45;;;;;;;;;;143724;597;47010;-55
2021/11/06 11:48:29;;;;;;;33.47;26.02;;;;;;;;;;143718;614;46019;-57
2021/11/06 11:51:04;;;;;;;35.33;27.58;;;;;;;;;;143728;577;46023;-57
2021/11/06 11:53:34;;;;;;;32.55;26.12;;;;;;;;;;143726;592;46020;-55
2021/11/06 11:56:18;;;;;;;47.45;33.88;;;;;;;;;;143724;594;47010;-55
2021/11/06 11:58:45;;;;;;;47.88;37.13;;;;;;;;;;143724;626;46018;-56
2021/11/06 12:01:31;;;;;;;48.55;37.30;;;;;;;;;;143727;572;47012;-56
2021/11/06 12:04:16;;;;;;;45.30;34.45;;;;;;;;;;143733;595;47021;-55
2021/11/06 12:06:44;;;;;;;42.88;32.08;;;;;;;;;;143727;575;46010;-55
2021/11/06 12:09:24;;;;;;;35.78;28.73;;;;;;;;;;143725;621;47020;-55
2021/11/06 12:11:54;;;;;;;43.55;32.13;;;;;;;;;;143728;643;46021;-55
2021/11/06 12:14:31;;;;;;;41.03;33.20;;;;;;;;;;143718;587;47020;-55
2021/11/06 12:17:05;;;;;;;33.95;26.77;;;;;;;;;;143727;576;46010;-54
2021/11/06 12:19:43;;;;;;;36.83;29.02;;;;;;;;;;143726;566;46021;-55
2021/11/06 12:22:19;;;;;;;30.15;26.90;;;;;;;;;;143728;565;46020;-56
2021/11/06 12:24:49;;;;;;;29.52;24.17;;;;;;;;;;143726;630;46022;-55
2021/11/06 12:27:17;;;;;;;36.65;29.65;;;;;;;;;;143724;594;47010;-55
2021/11/06 12:29:54;;;;;;;38.65;31.60;;;;;;;;;;143723;723;46020;-55
2021/11/06 12:32:25;;;;;;;37.35;27.58;;;;;;;;;;143727;566;46020;-55
2021/11/06 12:35:01;;;;;;;39.22;33.60;;;;;;;;;;143724;564;47020;-54
2021/11/06 12:37:57;;;;;;;40.60;31.10;;;;;;;;;;143729;571;45917;-55
2021/11/06 12:40:37;;;;;;;31.58;25.17;;;;;;;;;;143721;571;46022;-54
2021/11/06 12:43:13;;;;;;;34.55;27.80;;;;;;;;;;143726;632;46020;-55
2021/11/06 12:45:45;;;;;;;41.53;30.67;;;;;;;;;;143725;595;47022;-55
2021/11/06 12:48:20;;;;;;;42.67;31.48;;;;;;;;;;143728;578;46010;-55
2021/11/06 12:51:06;;;;;;;32.05;26.25;;;;;;;;;;143725;566;46020;-55
2021/11/06 12:53:39;;;;;;;37.75;28.87;;;;;;;;;;143724;588;47010;-55
2021/11/06 12:56:11;;;;;;;47.85;35.05;;;;;;;;;;143725;569;47029;-55
2021/11/06 12:58:40;;;;;;;31.25;24.58;;;;;;;;;;143725;590;47031;-54
2021/11/06 13:01:18;;;;;;;40.20;31.52;;;;;;;;;;143722;610;46020;-55
2021/11/06 13:03:46;;;;;;;35.60;28.87;;;;;;;;;;143727;638;46021;-55
2021/11/06 13:06:36;;;;;;;51.10;35.55;;;;;;;;;;143718;615;47020;-56
2021/11/06 13:09:19;;;;;;;51.35;34.53;;;;;;;;;;143723;564;47011;-56
2021/11/06 13:12:12;;;;;;;43.05;32.47;;;;;;;;;;143723;659;46021;-55
2021/11/06 13:14:52;;;;;;;44.38;30.17;;;;;;;;;;143725;617;47020;-55
2021/11/06 13:17:23;;;;;;;39.63;30.00;;;;;;;;;;143726;564;47022;-55
2021/11/06 13:20:15;;;;;;;42.15;30.37;;;;;;;;;;143726;597;46917;-56
2021/11/06 13:22:58;;;;;;;34.15;25.15;;;;;;;;;;143723;565;46022;-55
2021/11/06 13:25:31;;;;;;;44.40;31.90;;;;;;;;;;143727;580;46020;-55
2021/11/06 13:28:14;;;;;;;28.98;23.40;;;;;;;;;;143725;583;47020;-55
2021/11/06 13:30:53;;;;;;;39.33;26.83;;;;;;;;;;143727;627;46010;-55
2021/11/06 13:33:51;;;;;;;37.80;26.85;;;;;;;;;;143719;575;46021;-55
2021/11/06 13:36:19;;;;;;;38.10;25.52;;;;;;;;;;143727;596;46022;-55
2021/11/06 13:38:55;;;;;;;33.30;26.92;;;;;;;;;;143724;641;47022;-55
2021/11/06 13:41:33;;;;;;;37.35;28.08;;;;;;;;;;143721;579;47010;-55
2021/11/06 13:44:09;;;;;;;31.67;23.95;;;;;;;;;;143720;588;48020;-55
2021/11/06 13:46:54;;;;;;;35.75;27.62;;;;;;;;;;143724;578;47011;-55
2021/11/06 13:49:34;;;;;;;38.42;28.60;;;;;;;;;;143726;577;46023;-55
2021/11/06 13:52:06;;;;;;;35.13;26.45;;;;;;;;;;143725;593;47010;-55
2021/11/06 13:54:43;;;;;;;36.20;29.80;;;;;;;;;;143724;648;46020;-55
2021/11/06 13:57:19;;;;;;;35.15;27.08;;;;;;;;;;143727;610;46020;-55
2021/11/06 14:00:10;;;;;;;38.10;28.70;;;;;;;;;;143719;619;46022;-55
2021/11/06 14:02:45;;;;;;;38.80;27.30;;;;;;;;;;143727;566;46915;-56
2021/11/06 14:05:15;;;;;;;29.00;23.50;;;;;;;;;;143725;569;46020;-56
2021/11/06 14:08:02;;;;;;;41.85;30.27;;;;;;;;;;143729;579;46020;-56
2021/11/06 14:10:31;;;;;;;41.90;31.05;;;;;;;;;;143727;590;47025;-56
2021/11/06 14:13:11;;;;;;;39.33;29.55;;;;;;;;;;143725;600;47010;-56
2021/11/06 14:15:42;;;;;;;50.50;33.50;;;;;;;;;;143721;585;46020;-56
2021/11/06 14:18:13;;;;;;;42.72;34.17;;;;;;;;;;143726;604;46021;-56
2021/11/06 14:20:53;;;;;;;34.75;26.00;;;;;;;;;;143726;600;47020;-56
2021/11/06 14:23:43;;;;;;;38.00;26.80;;;;;;;;;;143725;571;46010;-56
2021/11/06 14:26:28;;;;;;;32.20;26.48;;;;;;;;;;143721;606;46021;-55
2021/11/06 14:28:58;;;;;;;31.67;24.73;;;;;;;;;;143727;576;46020;-56
2021/11/06 14:31:34;;;;;;;33.72;25.27;;;;;;;;;;143726;571;46022;-56